Time;durP1;ratioP1;P1;durP2;ratioP2;P2;SDS_P1;SDS_P2;PMS_P1;PMS_P2;Temp;Humidity;BMP_temperature;BMP_pressure;BME280_temperature;BME280_humidity;BME280_pressure;Samples;Min_cycle;Max_cycle;Signal;HPM_P1;HPM_P2
2021/05/10 00:02:18;;;;;;;23.67;8.78;;;;;;;2.98;88.78;100324.61;1807065;79;21047;-83
2021/05/10 00:04:45;;;;;;;20.00;8.28;;;;;;;2.97;88.99;100324.32;1807036;79;21066;-83
2021/05/10 00:07:13;;;;;;;30.08;9.63;;;;;;;2.97;88.92;100331.63;1807029;79;21027;-83
2021/05/10 00:09:42;;;;;;;22.10;9.45;;;;;;;2.95;88.85;100324.28;1807053;79;21448;-78
2021/05/10 00:12:12;;;;;;;19.35;8.68;;;;;;;2.91;88.94;100326.66;1807086;79;21573;-75
2021/05/10 00:14:43;;;;;;;21.95;9.55;;;;;;;2.90;89.26;100321.48;1807053;79;21122;-75
2021/05/10 00:17:11;;;;;;;22.42;8.60;;;;;;;2.90;89.36;100330.97;1807044;79;21593;-75
2021/05/10 00:19:39;;;;;;;22.35;9.95;;;;;;;2.89;89.62;100328.80;1806967;79;21070;-75
2021/05/10 00:22:07;;;;;;;29.80;9.58;;;;;;;2.89;89.71;100322.55;1807059;79;21384;-77
2021/05/10 00:24:35;;;;;;;23.15;9.03;;;;;;;2.86;89.64;100317.12;1806998;79;21071;-77
2021/05/10 00:27:04;;;;;;;22.00;8.98;;;;;;;2.83;89.55;100316.78;1807048;79;21000;-76
2021/05/10 00:29:33;;;;;;;17.07;8.68;;;;;;;2.79;89.49;100312.39;1806883;79;21150;-82
2021/05/10 00:32:01;;;;;;;20.43;9.08;;;;;;;2.76;89.61;100312.88;1807027;79;21122;-82
2021/05/10 00:34:30;;;;;;;20.55;8.08;;;;;;;2.74;89.78;100316.37;1807068;79;22324;-84
2021/05/10 00:36:59;;;;;;;25.48;9.60;;;;;;;2.73;90.20;100313.37;1807074;79;21243;-85
2021/05/10 00:39:27;;;;;;;20.80;8.30;;;;;;;2.73;90.19;100309.84;1807050;79;20937;-84
2021/05/10 00:41:57;;;;;;;18.07;8.25;;;;;;;2.71;90.08;100318.75;1807027;79;21055;-84
2021/05/10 00:44:24;;;;;;;19.57;9.45;;;;;;;2.68;90.10;100320.59;1806977;79;21063;-84
2021/05/10 00:46:53;;;;;;;25.37;10.03;;;;;;;2.67;90.22;100323.02;1807047;79;21206;-84
2021/05/10 00:49:21;;;;;;;18.10;8.38;;;;;;;2.64;90.29;100328.39;1806934;79;21048;-85
2021/05/10 00:51:49;;;;;;;19.87;8.35;;;;;;;2.64;90.38;100335.17;1807033;79;21023;-85
2021/05/10 00:54:17;;;;;;;20.62;8.63;;;;;;;2.62;90.29;100329.17;1807019;79;21071;-84
2021/05/10 00:56:44;;;;;;;19.02;9.30;;;;;;;2.59;90.40;100330.48;1807020;79;21035;-84
2021/05/10 00:59:12;;;;;;;19.27;8.90;;;;;;;2.58;90.67;100330.72;1806988;79;21208;-83
2021/05/10 01:01:39;;;;;;;18.45;7.70;;;;;;;2.57;90.78;100331.25;1806953;79;21202;-83
2021/05/10 01:04:07;;;;;;;15.65;7.92;;;;;;;2.55;90.73;100336.09;1807033;79;20882;-83
2021/05/10 01:06:35;;;;;;;22.07;10.90;;;;;;;2.54;90.86;100329.03;1807856;79;21040;-86
2021/05/10 01:09:05;;;;;;;15.98;8.75;;;;;;;2.52;90.82;100332.52;1808872;79;21095;-86
2021/05/10 01:11:32;;;;;;;19.15;9.15;;;;;;;2.50;90.82;100331.94;1808002;79;21203;-80
2021/05/10 01:14:01;;;;;;;21.07;9.28;;;;;;;2.47;90.95;100333.78;1806985;79;21094;-80
2021/05/10 01:16:29;;;;;;;21.75;8.73;;;;;;;2.45;91.01;100341.33;1807035;79;21055;-84
2021/05/10 01:18:57;;;;;;;19.10;9.30;;;;;;;2.43;90.98;100344.81;1806962;79;21048;-84
2021/05/10 01:21:25;;;;;;;19.48;8.75;;;;;;;2.40;91.05;100342.59;1807063;79;21083;-78
2021/05/10 01:23:53;;;;;;;19.10;8.75;;;;;;;2.38;91.04;100332.53;1810980;79;21385;-80
2021/05/10 01:26:21;;;;;;;20.20;7.83;;;;;;;2.37;91.08;100336.84;1806941;79;21559;-81
2021/05/10 01:28:49;;;;;;;15.18;8.20;;;;;;;2.34;91.14;100334.08;1783091;79;20951;-81
2021/05/10 01:31:17;;;;;;;19.35;8.80;;;;;;;2.32;91.17;100337.03;1807078;79;21027;-79
2021/05/10 01:33:44;;;;;;;16.82;8.50;;;;;;;2.31;91.18;100329.97;1806994;79;21059;-79
2021/05/10 01:36:12;;;;;;;24.15;9.88;;;;;;;2.30;91.20;100326.17;1807020;79;21210;-80
2021/05/10 01:38:40;;;;;;;21.93;8.43;;;;;;;2.26;91.26;100326.37;1806935;79;20991;-80
2021/05/10 01:41:08;;;;;;;17.42;8.90;;;;;;;2.25;91.44;100328.78;1806999;79;20976;-75
2021/05/10 01:43:35;;;;;;;23.95;10.15;;;;;;;2.26;91.74;100325.84;1806981;79;21059;-74
2021/05/10 01:46:03;;;;;;;17.35;9.23;;;;;;;2.26;91.78;100333.14;1807029;79;21515;-74
2021/05/10 01:48:31;;;;;;;20.68;8.48;;;;;;;2.26;91.78;100336.67;1807022;79;21383;-82
2021/05/10 01:50:58;;;;;;;17.50;8.75;;;;;;;2.26;91.86;100339.91;1783394;79;21087;-83
2021/05/10 01:53:26;;;;;;;18.87;9.50;;;;;;;2.27;91.86;100341.56;1807133;79;21031;-81
2021/05/10 01:55:54;;;;;;;19.55;8.80;;;;;;;2.25;91.75;100343.69;1807162;79;21064;-83
2021/05/10 01:58:22;;;;;;;18.05;9.13;;;;;;;2.24;91.68;100346.11;1807215;79;20937;-78
2021/05/10 02:00:49;;;;;;;19.50;9.68;;;;;;;2.21;91.63;100351.47;1807190;79;21324;-80
2021/05/10 02:03:21;;;;;;;18.35;9.93;;;;;;;2.19;91.66;100353.60;1807098;79;20935;-78
2021/05/10 02:05:51;;;;;;;25.62;10.38;;;;;;;2.16;91.75;100356.80;1785280;79;21143;-78
2021/05/10 02:08:18;;;;;;;20.72;9.75;;;;;;;2.15;92.03;100353.80;1807129;79;20936;-79
2021/05/10 02:10:50;;;;;;;20.35;9.28;;;;;;;2.15;92.09;100351.61;1807255;79;20921;-78
2021/05/10 02:13:23;;;;;;;19.42;9.83;;;;;;;2.14;92.13;100357.56;1784882;79;21368;-78
2021/05/10 02:15:56;;;;;;;16.27;8.25;;;;;;;2.12;92.11;100368.34;1807387;79;21546;-79
2021/05/10 02:18:33;;;;;;;19.87;10.00;;;;;;;2.09;92.09;100363.41;1807110;79;21090;-79
2021/05/10 02:21:01;;;;;;;14.55;8.60;;;;;;;2.06;92.04;100359.83;1807145;79;20984;-78
2021/05/10 02:23:31;;;;;;;14.58;9.20;;;;;;;2.05;92.05;100363.59;1807194;79;21051;-79
2021/05/10 02:26:02;;;;;;;17.67;9.10;;;;;;;2.03;92.11;100363.84;1807284;79;22274;-79
2021/05/10 02:28:30;;;;;;;17.00;9.58;;;;;;;2.03;92.26;100363.84;1807190;79;21168;-79
2021/05/10 02:31:01;;;;;;;21.95;10.23;;;;;;;2.04;92.49;100364.66;1783201;79;21071;-78
2021/05/10 02:33:32;;;;;;;18.15;9.78;;;;;;;2.04;92.44;100363.30;1784469;79;21475;-78
2021/05/10 02:36:00;;;;;;;17.80;9.70;;;;;;;2.02;92.40;100367.61;1804774;79;20945;-80
2021/05/10 02:38:28;;;;;;;17.12;9.20;;;;;;;2.03;92.38;100373.31;1809650;78;21206;-82
2021/05/10 02:40:57;;;;;;;19.05;9.85;;;;;;;2.01;92.37;100360.55;1808135;78;21070;-79
2021/05/10 02:43:25;;;;;;;19.73;10.00;;;;;;;2.02;92.48;100364.90;1793222;80;21184;-82
2021/05/10 02:45:53;;;;;;;17.75;10.28;;;;;;;2.03;92.61;100368.43;1793264;80;21126;-85
2021/05/10 02:48:22;;;;;;;19.32;9.18;;;;;;;2.04;92.71;100367.37;1793506;80;21578;-84
2021/05/10 02:50:50;;;;;;;19.35;9.75;;;;;;;2.05;92.81;100371.72;1793529;80;22255;-79
2021/05/10 02:53:18;;;;;;;18.85;10.38;;;;;;;2.08;92.93;100372.59;1793181;80;20944;-81
2021/05/10 02:55:46;;;;;;;19.75;10.45;;;;;;;2.11;93.10;100376.18;1793197;80;21059;-80
2021/05/10 02:58:14;;;;;;;20.88;10.90;;;;;;;2.15;93.23;100374.64;1793261;80;21054;-83
2021/05/10 03:00:41;;;;;;;24.40;11.55;;;;;;;2.19;93.31;100373.09;1793308;79;21581;-76
2021/05/10 03:03:10;;;;;;;26.00;12.43;;;;;;;2.22;93.44;100378.03;1793306;79;21191;-76
2021/05/10 03:05:40;;;;;;;29.10;13.53;;;;;;;2.26;93.79;100381.38;1793261;80;20956;-75
2021/05/10 03:08:07;;;;;;;29.75;14.13;;;;;;;2.33;94.03;100386.09;1793218;79;20935;-75
2021/05/10 03:10:35;;;;;;;37.42;16.23;;;;;;;2.38;94.17;100381.84;1793268;80;20949;-77
2021/05/10 03:13:03;;;;;;;34.53;17.25;;;;;;;2.43;94.31;100385.47;1793324;80;21106;-77
2021/05/10 03:15:31;;;;;;;37.30;17.10;;;;;;;2.50;94.42;100389.39;1793372;80;21526;-77
2021/05/10 03:17:58;;;;;;;42.25;18.12;;;;;;;2.58;94.51;100389.00;1793218;80;20929;-81
2021/05/10 03:20:26;;;;;;;44.85;17.92;;;;;;;2.62;94.60;100392.34;1793325;79;20917;-76
2021/05/10 03:22:53;;;;;;;40.50;17.75;;;;;;;2.71;94.74;100395.48;1792541;79;21363;-79
2021/05/10 03:25:22;;;;;;;35.78;17.00;;;;;;;2.79;94.85;100392.91;1793118;78;21490;-76
2021/05/10 03:27:53;;;;;;;27.80;14.03;;;;;;;2.87;94.90;100395.23;1792654;80;22269;-80
2021/05/10 03:30:23;;;;;;;28.85;14.25;;;;;;;2.96;95.04;100397.80;1782959;80;21134;-81
2021/05/10 03:32:51;;;;;;;28.47;14.63;;;;;;;3.06;95.24;100399.33;1778353;79;21564;-81
2021/05/10 03:35:20;;;;;;;30.50;13.85;;;;;;;3.17;95.34;100398.44;1778130;79;21423;-78
2021/05/10 03:37:49;;;;;;;25.02;12.63;;;;;;;3.27;95.46;100399.95;1784758;79;21101;-84
2021/05/10 03:40:19;;;;;;;27.40;13.65;;;;;;;3.38;95.54;100393.34;1783715;79;21279;-80
2021/05/10 03:42:47;;;;;;;21.17;12.10;;;;;;;3.51;95.69;100397.86;1775562;79;21057;-71
2021/05/10 03:45:17;;;;;;;22.82;11.65;;;;;;;3.65;95.85;100395.09;1783703;79;21097;-77
2021/05/10 03:47:44;;;;;;;20.25;11.57;;;;;;;3.80;95.88;100397.20;1770304;80;21556;-81
2021/05/10 03:50:18;;;;;;;20.08;10.72;;;;;;;3.94;95.89;100399.84;1782355;80;21165;-75
2021/05/10 03:52:46;;;;;;;22.32;10.43;;;;;;;4.10;96.03;100406.27;1782679;80;22274;-80
2021/05/10 03:55:20;;;;;;;23.50;11.40;;;;;;;4.30;96.26;100399.73;1782651;80;20919;-80
2021/05/10 03:57:49;;;;;;;18.87;10.50;;;;;;;4.51;96.04;100396.72;1781821;80;21167;-76
2021/05/10 04:00:18;;;;;;;21.40;9.50;;;;;;;4.89;95.45;100405.78;1784786;79;21129;-85
2021/05/10 04:02:46;;;;;;;21.73;7.92;;;;;;;4.89;95.45;100405.78;1787580;79;21217;-79
2021/05/10 04:05:51;;;;;;;11.95;6.20;;;;;;;5.08;94.18;100406.23;1806389;79;21465;-77
2021/05/10 04:16:11;;;;;;;15.72;5.83;;;;;;;6.14;87.40;100418.41;1795585;80;21154;-73
2021/05/10 04:18:40;;;;;;;13.80;6.37;;;;;;;6.32;85.80;100421.22;1795421;80;21195;-74
2021/05/10 04:21:08;;;;;;;11.57;6.22;;;;;;;6.49;84.77;100414.44;1795566;80;21099;-73
2021/05/10 04:23:35;;;;;;;10.85;5.83;;;;;;;6.67;84.20;100418.59;1795504;80;21591;-75
2021/05/10 04:26:03;;;;;;;14.18;5.80;;;;;;;6.84;83.17;100417.00;1795424;80;21032;-74
2021/05/10 04:28:31;;;;;;;12.13;6.35;;;;;;;7.01;82.33;100414.00;1795485;80;21110;-74
2021/05/10 04:30:59;;;;;;;9.15;5.42;;;;;;;7.17;80.62;100416.48;1793454;79;21388;-74
2021/05/10 04:33:30;;;;;;;9.28;4.78;;;;;;;7.35;80.22;100421.95;1792577;80;21499;-73
2021/05/10 04:35:59;;;;;;;8.88;4.67;;;;;;;7.49;78.87;100416.77;1792758;80;20988;-73
2021/05/10 04:38:28;;;;;;;10.98;4.70;;;;;;;7.62;77.73;100416.17;1792661;80;21068;-72
2021/05/10 04:40:57;;;;;;;10.50;5.87;;;;;;;7.78;77.98;100423.81;1792673;80;20945;-75
2021/05/10 04:43:25;;;;;;;10.13;5.60;;;;;;;7.91;76.93;100425.98;1792648;80;22366;-74
2021/05/10 04:45:54;;;;;;;14.00;5.33;;;;;;;8.03;76.62;100427.05;1792591;80;21115;-74
2021/05/10 04:48:21;;;;;;;10.82;5.28;;;;;;;8.15;76.35;100415.22;1792592;80;21126;-74
2021/05/10 04:50:49;;;;;;;8.58;5.37;;;;;;;8.26;76.36;100416.83;1792622;80;21087;-73
2021/05/10 04:53:17;;;;;;;12.43;5.60;;;;;;;8.37;75.60;100419.02;1810683;78;21061;-74
2021/05/10 04:55:44;;;;;;;15.45;5.67;;;;;;;8.48;74.84;100424.16;1820094;78;22083;-74
2021/05/10 04:58:12;;;;;;;11.93;5.90;;;;;;;8.59;74.47;100426.30;1770880;80;21021;-74
2021/05/10 05:00:40;;;;;;;10.88;5.70;;;;;;;8.68;73.87;100433.34;1785853;79;20954;-72
2021/05/10 05:03:08;;;;;;;8.63;4.83;;;;;;;8.78;74.28;100431.92;1779893;79;21088;-72
2021/05/10 05:05:36;;;;;;;8.68;5.17;;;;;;;8.87;72.99;100435.71;1788413;80;22414;-74
2021/05/10 05:08:04;;;;;;;10.30;5.15;;;;;;;8.97;72.09;100437.02;1795786;79;21274;-76
2021/05/10 05:10:32;;;;;;;7.90;4.72;;;;;;;9.07;72.21;100441.62;1795741;79;21128;-74
2021/05/10 05:13:00;;;;;;;9.88;4.37;;;;;;;9.18;71.81;100443.19;1795779;79;21164;-75
2021/05/10 05:15:27;;;;;;;11.70;4.50;;;;;;;9.30;72.39;100442.80;1795634;79;20997;-73
2021/05/10 05:17:56;;;;;;;7.87;4.20;;;;;;;9.45;72.47;100449.53;1762457;79;21109;-73
2021/05/10 05:20:23;;;;;;;6.28;3.75;;;;;;;9.62;71.17;100448.58;1796274;79;21438;-73
2021/05/10 05:22:51;;;;;;;6.08;3.98;;;;;;;9.77;70.27;100445.70;1796209;79;21563;-73
2021/05/10 05:25:19;;;;;;;4.90;3.05;;;;;;;9.97;69.40;100450.70;1796210;79;20969;-73
2021/05/10 05:27:46;;;;;;;7.10;3.65;;;;;;;10.12;67.64;100451.91;1796227;79;20950;-72
2021/05/10 05:30:16;;;;;;;5.28;3.35;;;;;;;10.25;66.01;100446.59;1796125;79;21199;-73
2021/05/10 05:32:43;;;;;;;5.60;3.47;;;;;;;10.36;64.73;100451.41;1796283;79;21208;-72
2021/05/10 05:35:13;;;;;;;4.87;3.22;;;;;;;10.46;64.90;100454.00;1796217;79;21594;-71
2021/05/10 05:37:40;;;;;;;6.37;3.37;;;;;;;10.58;65.08;100457.15;1796356;79;21520;-71
2021/05/10 05:40:10;;;;;;;7.08;3.50;;;;;;;10.70;63.84;100449.05;1796248;79;20903;-70
2021/05/10 05:42:38;;;;;;;8.55;2.85;;;;;;;10.84;62.59;100448.59;1796372;79;21593;-71
2021/05/10 05:45:08;;;;;;;6.67;3.00;;;;;;;10.94;61.51;100445.70;1795982;80;21181;-70
2021/05/10 05:47:36;;;;;;;4.65;3.52;;;;;;;11.08;61.11;100452.06;1799031;79;21618;-71
2021/05/10 05:50:05;;;;;;;6.12;2.65;;;;;;;11.27;59.83;100458.12;1794453;79;20994;-72
2021/05/10 05:52:34;;;;;;;5.42;2.87;;;;;;;11.42;58.69;100455.95;1799672;79;21598;-71
2021/05/10 05:55:03;;;;;;;7.05;3.42;;;;;;;11.60;59.61;100452.88;1799608;79;21160;-70
2021/05/10 05:57:30;;;;;;;6.55;2.60;;;;;;;11.73;59.73;100447.98;1798242;79;21426;-72
2021/05/10 06:00:01;;;;;;;7.08;3.30;;;;;;;11.82;57.54;100452.27;1795171;79;21179;-71
2021/05/10 06:02:31;;;;;;;5.60;3.50;;;;;;;11.94;56.06;100453.16;1788474;79;21134;-71
2021/05/10 06:05:00;;;;;;;13.13;5.72;;;;;;;12.06;54.60;100450.74;1783975;79;21172;-73
2021/05/10 06:07:29;;;;;;;15.60;6.50;;;;;;;12.15;55.04;100455.22;1792482;79;21152;-70
2021/05/10 06:10:01;;;;;;;9.88;4.22;;;;;;;12.29;55.46;100457.16;1793915;80;22199;-71
2021/05/10 06:12:29;;;;;;;8.20;2.90;;;;;;;12.40;53.56;100456.66;1787689;79;21556;-71
2021/05/10 06:15:00;;;;;;;3.83;2.55;;;;;;;12.49;51.82;100458.95;1797158;79;21152;-71
2021/05/10 06:17:28;;;;;;;7.75;3.08;;;;;;;12.60;53.33;100456.00;1795453;79;21148;-69
2021/05/10 06:19:56;;;;;;;10.60;5.60;;;;;;;12.70;52.56;100453.03;1793914;80;21160;-72
2021/05/10 06:22:24;;;;;;;37.30;22.35;;;;;;;12.80;51.66;100452.23;1794370;80;21246;-71
2021/05/10 06:24:53;;;;;;;30.68;10.98;;;;;;;12.89;51.62;100448.19;1794171;80;21180;-76
2021/05/10 06:27:22;;;;;;;12.98;6.03;;;;;;;13.03;52.26;100458.63;1765886;80;21179;-82
2021/05/10 06:29:51;;;;;;;20.55;8.58;;;;;;;13.19;51.48;100454.42;1789462;79;21185;-83
2021/05/10 06:32:20;;;;;;;47.10;19.23;;;;;;;13.31;50.19;100450.27;1767339;81;21146;-82
2021/05/10 06:34:49;;;;;;;19.50;8.10;;;;;;;13.42;50.00;100450.28;1767621;81;21341;-75
2021/05/10 06:39:58;;;;;;;7.33;3.22;;;;;;;13.71;46.93;100447.91;1889694;75;22737;-76
2021/05/10 06:42:26;;;;;;;5.80;3.60;;;;;;;13.74;45.12;100455.55;1863361;76;20971;-82
2021/05/10 06:44:55;;;;;;;12.95;3.55;;;;;;;13.74;45.78;100453.36;1839968;76;22278;-79
2021/05/10 06:47:23;;;;;;;6.40;2.90;;;;;;;13.80;44.87;100452.91;1820884;78;21061;-74
2021/05/10 06:49:51;;;;;;;9.78;3.10;;;;;;;13.92;45.79;100455.63;1826838;77;20966;-80
2021/05/10 06:52:19;;;;;;;7.83;3.05;;;;;;;14.09;45.83;100457.93;1848589;77;21016;-81
2021/05/10 06:54:46;;;;;;;23.75;12.28;;;;;;;14.25;45.71;100454.19;1831928;77;21590;-81
2021/05/10 06:57:14;;;;;;;9.88;4.97;;;;;;;14.34;45.10;100459.19;1781354;79;21352;-76
2021/05/10 06:59:44;;;;;;;9.88;4.45;;;;;;;14.40;43.42;100453.77;1840061;77;21231;-81
2021/05/10 07:02:12;;;;;;;19.57;7.67;;;;;;;14.45;43.65;100448.10;1849209;77;20955;-82
2021/05/10 07:04:40;;;;;;;7.75;3.60;;;;;;;14.52;44.30;100444.88;1837847;77;21055;-75
2021/05/10 07:07:08;;;;;;;2.77;2.05;;;;;;;14.62;44.58;100447.34;1816220;79;20999;-85
2021/05/10 07:09:35;;;;;;;25.82;9.78;;;;;;;14.68;40.19;100446.63;1816101;79;21350;-85
2021/05/10 07:12:06;;;;;;;7.83;3.62;;;;;;;14.68;43.16;100449.39;1817987;77;21010;-85
2021/05/10 07:14:34;;;;;;;4.55;2.40;;;;;;;14.82;43.32;100439.03;1825908;77;20990;-78
2021/05/10 07:17:02;;;;;;;5.87;2.70;;;;;;;14.93;41.70;100443.11;1834528;77;20982;-80
2021/05/10 07:19:30;;;;;;;43.75;17.45;;;;;;;14.97;41.29;100451.01;1831098;77;21546;-81
2021/05/10 07:21:58;;;;;;;6.50;2.52;;;;;;;15.01;39.29;100442.88;1838129;77;21744;-79
2021/05/10 07:24:26;;;;;;;12.65;4.00;;;;;;;15.05;41.22;100443.27;1824690;78;21044;-81
2021/05/10 07:26:55;;;;;;;7.00;4.50;;;;;;;15.17;39.64;100452.30;1824795;78;20994;-81
2021/05/10 07:29:24;;;;;;;5.33;2.95;;;;;;;15.18;38.85;100443.69;1824549;77;20986;-84
2021/05/10 07:31:51;;;;;;;3.70;1.57;;;;;;;15.22;37.94;100448.00;1824659;77;20871;-77
2021/05/10 07:34:21;;;;;;;4.12;2.30;;;;;;;15.24;37.83;100440.76;1824915;77;21479;-76
2021/05/10 07:36:49;;;;;;;7.92;2.25;;;;;;;15.28;40.67;100438.40;1799597;77;20986;-83
2021/05/10 07:39:17;;;;;;;6.17;2.70;;;;;;;15.38;38.25;100443.61;1830074;77;21014;-82
2021/05/10 07:41:45;;;;;;;5.10;1.98;;;;;;;15.44;38.85;100437.34;1824649;78;21464;-72
2021/05/10 07:44:13;;;;;;;6.08;2.55;;;;;;;15.60;37.78;100433.53;1824625;78;21049;-83
2021/05/10 07:46:41;;;;;;;7.00;2.22;;;;;;;15.72;37.06;100441.38;1824868;78;21181;-79
2021/05/10 07:49:09;;;;;;;5.97;1.80;;;;;;;15.81;38.10;100432.49;1824914;78;20962;-83
2021/05/10 07:51:37;;;;;;;7.08;3.08;;;;;;;15.94;37.90;100435.39;1824240;78;21544;-78
2021/05/10 07:54:05;;;;;;;4.85;2.25;;;;;;;16.08;38.84;100434.63;1824003;78;21176;-78
2021/05/10 07:56:32;;;;;;;2.37;1.42;;;;;;;16.24;38.61;100434.29;1824344;78;20918;-79
2021/05/10 07:59:01;;;;;;;2.62;1.37;;;;;;;16.37;34.61;100439.38;1827692;77;22203;-74
2021/05/10 08:01:29;;;;;;;3.90;2.25;;;;;;;16.49;36.00;100436.14;1825978;77;21571;-73
2021/05/10 08:03:57;;;;;;;4.00;2.00;;;;;;;16.80;35.99;100436.38;1824080;78;21021;-73
2021/05/10 08:06:25;;;;;;;13.93;3.12;;;;;;;17.11;35.26;100431.85;1824180;78;21052;-73
2021/05/10 08:08:54;;;;;;;4.33;1.70;;;;;;;17.46;32.98;100435.12;1824246;78;20867;-71
2021/05/10 08:11:22;;;;;;;4.70;1.45;;;;;;;17.82;31.87;100442.83;1824446;78;21178;-73
2021/05/10 08:13:50;;;;;;;13.22;1.47;;;;;;;17.91;32.26;100446.90;1824062;78;21001;-74
2021/05/10 08:16:18;;;;;;;5.15;1.90;;;;;;;17.96;34.13;100438.32;1824245;78;21021;-75
2021/05/10 08:18:45;;;;;;;1.80;1.30;;;;;;;18.17;33.47;100442.42;1824055;78;21627;-75
2021/05/10 08:21:13;;;;;;;7.20;1.80;;;;;;;18.29;30.28;100447.42;1824054;78;21049;-77
2021/05/10 08:23:41;;;;;;;4.22;1.42;;;;;;;18.32;31.15;100444.53;1824249;78;21465;-76
2021/05/10 08:26:10;;;;;;;4.37;1.57;;;;;;;18.41;30.88;100441.88;1824146;78;21009;-78
2021/05/10 08:28:38;;;;;;;2.95;1.70;;;;;;;18.54;30.47;100429.34;1823907;78;20966;-78
2021/05/10 08:31:06;;;;;;;7.08;2.77;;;;;;;18.74;29.75;100420.91;1824207;78;21545;-73
2021/05/10 08:33:34;;;;;;;2.65;1.50;;;;;;;18.96;29.33;100419.59;1824302;78;21250;-77
2021/05/10 08:36:01;;;;;;;4.97;2.50;;;;;;;19.12;28.50;100419.07;1824161;77;21312;-77
2021/05/10 08:38:29;;;;;;;3.05;1.57;;;;;;;19.21;30.53;100410.58;1823767;77;21038;-74
2021/05/10 08:40:57;;;;;;;2.72;1.70;;;;;;;19.26;31.77;100413.70;1824244;78;21128;-76
2021/05/10 08:43:26;;;;;;;3.20;1.62;;;;;;;19.41;30.97;100415.73;1834924;78;21072;-75
2021/05/10 08:45:57;;;;;;;6.75;1.60;;;;;;;19.53;30.57;100411.55;1824132;78;21160;-77
2021/05/10 08:48:25;;;;;;;3.98;1.67;;;;;;;19.59;32.30;100403.16;1823697;78;21297;-76
2021/05/10 08:50:54;;;;;;;2.22;1.67;;;;;;;19.88;30.96;100396.95;1823000;78;21164;-77
2021/05/10 08:53:41;;;;;;;2.62;1.65;;;;;;;20.14;32.07;100390.86;1822932;77;21168;-77
2021/05/10 08:56:08;;;;;;;2.45;1.40;;;;;;;20.51;29.52;100388.00;1823030;78;21148;-76
2021/05/10 08:58:42;;;;;;;2.33;1.37;;;;;;;20.70;28.19;100381.67;1822803;78;21159;-75
2021/05/10 09:01:11;;;;;;;2.70;1.20;;;;;;;20.81;31.17;100392.46;1839113;77;20966;-76
2021/05/10 09:03:43;;;;;;;1.57;1.12;;;;;;;21.03;28.70;100379.80;1848252;77;20977;-74
2021/05/10 09:06:13;;;;;;;2.85;1.40;;;;;;;21.21;27.77;100380.17;1843263;77;20986;-76
2021/05/10 09:08:43;;;;;;;3.20;2.00;;;;;;;21.34;29.27;100380.28;1824090;78;20879;-75
2021/05/10 09:11:16;;;;;;;3.15;1.40;;;;;;;21.35;26.95;100367.94;1824281;78;21061;-76
2021/05/10 09:13:46;;;;;;;2.70;1.65;;;;;;;21.29;27.18;100366.61;1824100;78;21307;-77
2021/05/10 09:16:15;;;;;;;6.00;1.85;;;;;;;21.23;25.87;100368.89;1824162;78;21465;-76
2021/05/10 09:18:51;;;;;;;6.28;1.82;;;;;;;21.11;25.90;100362.02;1823882;78;20982;-76
2021/05/10 09:21:26;;;;;;;3.35;1.60;;;;;;;20.93;27.17;100361.64;1824167;77;21582;-76
2021/05/10 09:23:58;;;;;;;2.45;1.47;;;;;;;20.94;27.12;100356.28;1822928;78;21548;-77
2021/05/10 09:26:34;;;;;;;4.00;2.37;;;;;;;20.99;26.96;100364.95;1823997;78;21375;-74
2021/05/10 09:29:03;;;;;;;4.47;2.00;;;;;;;20.84;26.57;100367.20;1824195;78;20982;-75
2021/05/10 09:31:31;;;;;;;3.40;1.65;;;;;;;20.56;27.53;100359.03;1823455;78;20982;-72
2021/05/10 09:34:02;;;;;;;3.05;1.32;;;;;;;20.55;28.44;100356.02;1807489;78;21044;-73
2021/05/10 09:36:39;;;;;;;3.12;1.50;;;;;;;20.58;26.76;100352.50;1823298;77;21100;-72
2021/05/10 09:39:10;;;;;;;2.37;1.32;;;;;;;20.58;29.46;100350.52;1833163;78;22633;-74
2021/05/10 09:42:02;;;;;;;3.20;1.32;;;;;;;20.58;25.54;100346.92;1802475;78;21211;-73
2021/05/10 09:44:40;;;;;;;3.08;1.20;;;;;;;20.50;25.49;100343.74;1820587;78;21663;-75
2021/05/10 09:47:08;;;;;;;2.00;1.42;;;;;;;20.69;25.76;100336.23;1839285;77;21616;-75
2021/05/10 09:49:45;;;;;;;5.00;1.70;;;;;;;20.81;25.66;100336.66;1835509;77;21064;-74
2021/05/10 09:52:22;;;;;;;12.45;2.25;;;;;;;20.85;27.78;100343.13;1823287;77;21321;-74
2021/05/10 09:55:01;;;;;;;2.22;1.45;;;;;;;20.99;27.99;100335.06;1836617;77;20950;-75
2021/05/10 09:57:31;;;;;;;3.90;1.67;;;;;;;21.05;26.10;100334.18;1843129;77;20970;-74
2021/05/10 10:00:20;;;;;;;3.00;1.60;;;;;;;20.98;26.10;100337.62;1846312;77;20990;-75
2021/05/10 10:02:48;;;;;;;2.72;1.50;;;;;;;21.04;26.47;100326.39;1849461;77;21583;-75
2021/05/10 10:05:17;;;;;;;3.75;1.60;;;;;;;21.02;26.48;100316.18;1849468;77;21372;-74
2021/05/10 10:07:45;;;;;;;2.75;1.20;;;;;;;20.97;25.16;100315.08;1833054;77;21045;-73
2021/05/10 10:10:13;;;;;;;3.12;1.40;;;;;;;20.88;26.36;100308.09;1821002;78;21840;-73
2021/05/10 10:12:42;;;;;;;6.60;1.50;;;;;;;20.80;27.01;100307.13;1820946;77;20981;-73
2021/05/10 10:15:12;;;;;;;3.58;2.33;;;;;;;20.78;27.46;100305.92;1820906;78;21136;-73
2021/05/10 10:17:40;;;;;;;2.17;1.35;;;;;;;20.90;26.92;100310.74;1834212;77;22537;-75
2021/05/10 10:20:11;;;;;;;2.15;1.37;;;;;;;21.09;25.51;100310.75;1820928;78;21128;-75
2021/05/10 10:22:41;;;;;;;3.50;2.02;;;;;;;21.04;25.36;100306.05;1825131;77;21013;-72
2021/05/10 10:25:10;;;;;;;2.50;1.27;;;;;;;20.91;27.75;100303.18;1834668;77;21112;-74
2021/05/10 10:27:39;;;;;;;3.45;1.17;;;;;;;21.15;26.54;100300.68;1836043;77;20974;-74
2021/05/10 10:30:08;;;;;;;1.52;1.00;;;;;;;21.35;26.72;100300.91;1849307;77;22302;-73
2021/05/10 10:32:36;;;;;;;2.60;1.62;;;;;;;21.27;26.94;100292.98;1849523;77;21485;-74
2021/05/10 10:35:05;;;;;;;10.78;2.35;;;;;;;21.19;26.09;100298.17;1849174;77;20931;-79
2021/05/10 10:37:34;;;;;;;2.08;1.27;;;;;;;21.04;27.61;100295.69;1848363;77;21567;-82
2021/05/10 10:43:31;;;;;;;9.18;1.80;;;;;;;21.13;26.81;100293.27;1733979;81;21087;-66
2021/05/10 10:46:20;;;;;;;3.05;1.30;;;;;;;21.03;25.43;100289.88;1722241;83;21012;-65
2021/05/10 10:48:49;;;;;;;7.95;1.67;;;;;;;20.74;25.82;100285.72;1727045;83;21571;-65
2021/05/10 10:51:18;;;;;;;5.22;1.80;;;;;;;20.63;27.12;100279.10;1722153;83;21083;-65
2021/05/10 10:53:54;;;;;;;2.50;1.27;;;;;;;20.86;29.52;100273.58;1727101;83;21080;-65
2021/05/10 10:56:54;;;;;;;2.47;1.50;;;;;;;21.26;27.26;100271.82;1721830;82;21256;-65
2021/05/10 10:59:37;;;;;;;2.47;1.42;;;;;;;21.51;26.38;100261.08;1723045;81;21210;-65
2021/05/10 11:02:21;;;;;;;2.45;1.67;;;;;;;21.72;25.87;100269.84;1722176;83;21170;-68
2021/05/10 11:05:22;;;;;;;3.45;1.65;;;;;;;21.66;25.29;100267.14;1726920;83;21187;-71
2021/05/10 11:08:02;;;;;;;2.87;1.50;;;;;;;21.66;27.78;100261.55;1721183;83;21135;-68
2021/05/10 11:10:52;;;;;;;3.92;1.62;;;;;;;21.82;27.00;100256.42;1725968;83;22346;-72
2021/05/10 11:13:36;;;;;;;5.30;1.70;;;;;;;22.07;26.98;100242.25;1726352;83;21119;-71
2021/05/10 11:16:14;;;;;;;6.55;2.00;;;;;;;22.07;24.53;100253.44;1726777;83;21137;-71
2021/05/10 11:21:37;;;;;;;4.92;1.60;;;;;;;22.05;25.58;100235.64;1873016;76;22697;-69
2021/05/10 11:24:09;;;;;;;3.50;1.72;;;;;;;21.91;24.06;100238.21;1841481;77;20996;-67
2021/05/10 11:26:50;;;;;;;5.53;1.57;;;;;;;21.80;26.74;100237.83;1841431;78;21415;-72
2021/05/10 11:29:34;;;;;;;1.95;1.30;;;;;;;21.98;27.54;100234.09;1811825;78;20976;-68
2021/05/10 11:32:13;;;;;;;2.08;1.40;;;;;;;22.24;26.07;100223.53;1841484;77;20897;-72
2021/05/10 11:34:41;;;;;;;3.17;1.75;;;;;;;22.15;24.53;100223.00;1841307;77;21482;-72
2021/05/10 11:37:09;;;;;;;4.53;1.57;;;;;;;22.00;25.17;100224.75;1800105;79;20874;-67
2021/05/10 11:39:39;;;;;;;3.47;1.60;;;;;;;22.12;25.75;100215.37;1827174;78;21201;-67
2021/05/10 11:42:12;;;;;;;;;;;;;;;22.06;25.93;100217.69;1821272;78;20947;-68
2021/05/10 11:44:41;;;;;;;4.58;1.82;;;;;;;22.09;25.79;100210.53;1808155;79;20137;-68
2021/05/10 11:47:12;;;;;;;;;;;;;;;22.19;26.53;100214.67;1801182;79;20932;-68
2021/05/10 11:49:42;;;;;;;2.22;1.40;;;;;;;22.45;25.50;100201.23;1794683;78;20208;-68
2021/05/10 11:52:23;;;;;;;4.37;1.92;;;;;;;22.74;24.84;100197.58;1792354;78;22256;-67
2021/05/10 11:54:54;;;;;;;3.55;1.50;;;;;;;23.02;25.23;100199.94;1808277;79;21012;-67